TimeCDT,TemperatureF,Dew PointF,Humidity,Sea Level PressureIn,VisibilityMPH,Wind Direction,Wind SpeedMPH,Gust SpeedMPH,PrecipitationIn,Events,Conditions,WindDirDegrees,DateUTC
12:53 AM,77.0,62.1,60,29.71,10.0,South,12.7,-,N/A,,Clear,180,2012-10-22 05:53:00
1:53 AM,75.9,62.1,62,29.71,10.0,South,13.8,-,N/A,,Clear,180,2012-10-22 06:53:00
2:53 AM,75.0,62.1,64,29.72,10.0,South,12.7,-,N/A,,Clear,190,2012-10-22 07:53:00
3:53 AM,75.0,63.0,66,29.73,10.0,South,15.0,-,N/A,,Clear,190,2012-10-22 08:53:00
4:53 AM,75.0,63.0,66,29.75,10.0,South,15.0,-,N/A,,Clear,190,2012-10-22 09:53:00
5:53 AM,75.0,63.0,66,29.76,10.0,South,16.1,-,N/A,,Clear,190,2012-10-22 10:53:00
7:12 AM,73.4,64.4,73,29.82,10.0,South,15.0,-,N/A,Thunderstorm,Clear,190,2012-10-22 12:12:00
7:27 AM,73.4,64.4,73,29.81,10.0,South,11.5,-,N/A,,Clear,180,2012-10-22 12:27:00
7:53 AM,73.0,64.0,73,29.76,10.0,SSW,10.4,-,0.00,,Mostly Cloudy,200,2012-10-22 12:53:00
8:53 AM,73.0,64.0,73,29.85,10.0,SW,20.7,-,N/A,,Clear,220,2012-10-22 13:53:00
9:53 AM,71.1,63.0,75,29.85,10.0,WSW,21.9,26.5,0.00,Rain,Light Rain,240,2012-10-22 14:53:00
10:15 AM,69.8,62.6,78,29.93,10.0,SW,19.6,-,0.01,Rain-Thunderstorm,Light Rain,230,2012-10-22 15:15:00
10:30 AM,66.2,62.6,88,29.94,8.0,WSW,20.7,28.8,0.04,Rain,Light Rain,240,2012-10-22 15:30:00
10:53 AM,66.9,61.0,81,29.90,10.0,WSW,13.8,-,0.09,Rain,Rain,250,2012-10-22 15:53:00
11:07 AM,66.2,60.8,83,29.93,10.0,SSW,10.4,-,0.01,Rain-Thunderstorm,Light Rain,200,2012-10-22 16:07:00
11:53 AM,66.9,61.0,81,29.93,10.0,SSW,24.2,38.0,0.04,Rain,Light Rain,200,2012-10-22 16:53:00
12:18 PM,66.2,60.8,83,29.89,10.0,SSE,19.6,25.3,0.02,Rain,Light Rain,160,2012-10-22 17:18:00
12:53 PM,69.1,62.1,78,29.83,10.0,SSE,15.0,-,0.02,,Unknown,160,2012-10-22 17:53:00
1:53 PM,75.0,61.0,62,29.79,10.0,SSE,13.8,-,N/A,,Clear,160,2012-10-22 18:53:00
2:53 PM,77.0,62.1,60,29.78,10.0,South,19.6,-,N/A,,Clear,180,2012-10-22 19:53:00
3:53 PM,78.1,62.1,58,29.78,10.0,South,18.4,-,N/A,,Clear,190,2012-10-22 20:53:00
4:53 PM,77.0,64.0,64,29.79,10.0,South,17.3,24.2,N/A,,Clear,180,2012-10-22 21:53:00
5:53 PM,75.9,64.0,67,29.78,10.0,South,23.0,-,N/A,,Clear,180,2012-10-22 22:53:00
6:53 PM,72.0,64.0,76,29.79,10.0,South,13.8,-,N/A,,Clear,180,2012-10-22 23:53:00
8:53 PM,68.0,64.0,87,29.81,10.0,SE,10.4,-,N/A,,Clear,140,2012-10-23 01:53:00
9:53 PM,66.9,63.0,87,29.82,10.0,SSE,12.7,-,N/A,,Clear,150,2012-10-23 02:53:00
10:53 PM,64.9,62.1,90,29.82,10.0,South,5.8,-,N/A,,Clear,170,2012-10-23 03:53:00